sensor_id;sensor_type;location;lat;lon;timestamp;P1;durP1;ratioP1;P2;durP2;ratioP2
63203;SDS011;49297;43.210;27.914;2024-01-15T00:00:20;16.90;;;12.90;;
63203;SDS011;49297;43.210;27.914;2024-01-15T00:02:46;16.08;;;13.80;;
63203;SDS011;49297;43.210;27.914;2024-01-15T00:05:12;10.95;;;9.82;;
63203;SDS011;49297;43.210;27.914;2024-01-15T00:07:40;12.50;;;11.15;;
63203;SDS011;49297;43.210;27.914;2024-01-15T00:10:06;14.47;;;10.63;;
63203;SDS011;49297;43.210;27.914;2024-01-15T00:12:32;14.40;;;11.73;;
63203;SDS011;49297;43.210;27.914;2024-01-15T00:14:57;15.27;;;13.70;;
63203;SDS011;49297;43.210;27.914;2024-01-15T00:17:23;18.97;;;14.43;;
63203;SDS011;49297;43.210;27.914;2024-01-15T00:19:49;20.10;;;15.40;;
63203;SDS011;49297;43.210;27.914;2024-01-15T00:22:14;21.70;;;16.33;;
63203;SDS011;49297;43.210;27.914;2024-01-15T00:24:40;21.98;;;17.10;;
63203;SDS011;49297;43.210;27.914;2024-01-15T00:27:06;21.50;;;17.63;;
63203;SDS011;49297;43.210;27.914;2024-01-15T00:29:34;19.77;;;16.33;;
63203;SDS011;49297;43.210;27.914;2024-01-15T00:32:00;21.65;;;17.48;;
63203;SDS011;49297;43.210;27.914;2024-01-15T00:34:26;21.67;;;19.05;;
63203;SDS011;49297;43.210;27.914;2024-01-15T00:36:51;24.88;;;20.77;;
63203;SDS011;49297;43.210;27.914;2024-01-15T00:39:17;26.20;;;21.75;;
63203;SDS011;49297;43.210;27.914;2024-01-15T00:41:43;24.23;;;21.75;;
63203;SDS011;49297;43.210;27.914;2024-01-15T00:44:08;24.67;;;22.10;;
63203;SDS011;49297;43.210;27.914;2024-01-15T00:46:41;25.67;;;21.88;;
63203;SDS011;49297;43.210;27.914;2024-01-15T00:49:13;26.55;;;21.48;;
63203;SDS011;49297;43.210;27.914;2024-01-15T00:51:39;24.35;;;21.67;;
63203;SDS011;49297;43.210;27.914;2024-01-15T00:54:05;26.05;;;21.67;;
63203;SDS011;49297;43.210;27.914;2024-01-15T00:56:31;22.73;;;20.40;;
63203;SDS011;49297;43.210;27.914;2024-01-15T00:58:57;26.80;;;20.97;;
63203;SDS011;49297;43.210;27.914;2024-01-15T01:01:22;26.87;;;20.63;;
63203;SDS011;49297;43.210;27.914;2024-01-15T01:03:48;22.98;;;17.33;;
63203;SDS011;49297;43.210;27.914;2024-01-15T01:06:14;21.23;;;18.70;;
63203;SDS011;49297;43.210;27.914;2024-01-15T01:08:39;24.20;;;19.23;;
63203;SDS011;49297;43.210;27.914;2024-01-15T01:11:05;22.55;;;19.92;;
63203;SDS011;49297;43.210;27.914;2024-01-15T01:13:32;22.60;;;18.35;;
63203;SDS011;49297;43.210;27.914;2024-01-15T01:15:58;29.92;;;19.73;;
63203;SDS011;49297;43.210;27.914;2024-01-15T01:18:24;22.00;;;18.97;;
63203;SDS011;49297;43.210;27.914;2024-01-15T01:20:50;20.73;;;18.35;;
63203;SDS011;49297;43.210;27.914;2024-01-15T01:23:16;23.35;;;19.48;;
63203;SDS011;49297;43.210;27.914;2024-01-15T01:25:42;25.45;;;20.17;;
63203;SDS011;49297;43.210;27.914;2024-01-15T01:28:07;23.15;;;18.45;;
63203;SDS011;49297;43.210;27.914;2024-01-15T01:30:34;25.08;;;17.73;;
63203;SDS011;49297;43.210;27.914;2024-01-15T01:33:00;25.53;;;19.30;;
63203;SDS011;49297;43.210;27.914;2024-01-15T01:35:26;26.13;;;19.30;;
63203;SDS011;49297;43.210;27.914;2024-01-15T01:37:51;23.80;;;19.10;;
63203;SDS011;49297;43.210;27.914;2024-01-15T01:40:17;21.08;;;18.85;;
63203;SDS011;49297;43.210;27.914;2024-01-15T01:42:43;19.55;;;17.45;;
63203;SDS011;49297;43.210;27.914;2024-01-15T01:45:09;28.48;;;20.38;;
63203;SDS011;49297;43.210;27.914;2024-01-15T01:47:35;21.63;;;18.17;;
63203;SDS011;49297;43.210;27.914;2024-01-15T01:50:01;20.80;;;18.27;;
63203;SDS011;49297;43.210;27.914;2024-01-15T01:52:28;23.88;;;20.95;;
63203;SDS011;49297;43.210;27.914;2024-01-15T01:54:53;24.30;;;20.33;;
63203;SDS011;49297;43.210;27.914;2024-01-15T01:57:20;23.70;;;21.05;;
63203;SDS011;49297;43.210;27.914;2024-01-15T01:59:46;27.67;;;20.43;;
63203;SDS011;49297;43.210;27.914;2024-01-15T02:02:12;29.15;;;19.92;;
63203;SDS011;49297;43.210;27.914;2024-01-15T02:04:39;24.90;;;20.63;;
63203;SDS011;49297;43.210;27.914;2024-01-15T02:07:05;22.67;;;20.20;;
63203;SDS011;49297;43.210;27.914;2024-01-15T02:09:30;23.57;;;19.03;;
63203;SDS011;49297;43.210;27.914;2024-01-15T02:11:57;22.07;;;19.83;;
63203;SDS011;49297;43.210;27.914;2024-01-15T02:14:24;22.92;;;20.42;;
63203;SDS011;49297;43.210;27.914;2024-01-15T02:16:49;23.88;;;20.67;;
63203;SDS011;49297;43.210;27.914;2024-01-15T02:19:15;25.30;;;21.65;;
63203;SDS011;49297;43.210;27.914;2024-01-15T02:21:45;26.85;;;20.42;;
63203;SDS011;49297;43.210;27.914;2024-01-15T02:24:10;25.50;;;19.58;;
63203;SDS011;49297;43.210;27.914;2024-01-15T02:26:36;28.75;;;22.02;;
63203;SDS011;49297;43.210;27.914;2024-01-15T02:29:03;26.50;;;22.45;;
63203;SDS011;49297;43.210;27.914;2024-01-15T02:31:34;28.40;;;21.48;;
63203;SDS011;49297;43.210;27.914;2024-01-15T02:34:01;32.47;;;22.63;;
63203;SDS011;49297;43.210;27.914;2024-01-15T02:36:27;30.13;;;23.47;;
63203;SDS011;49297;43.210;27.914;2024-01-15T02:38:52;27.67;;;23.43;;
63203;SDS011;49297;43.210;27.914;2024-01-15T02:41:18;31.33;;;23.37;;
63203;SDS011;49297;43.210;27.914;2024-01-15T02:43:44;35.05;;;22.42;;
63203;SDS011;49297;43.210;27.914;2024-01-15T02:46:09;28.70;;;22.27;;
63203;SDS011;49297;43.210;27.914;2024-01-15T02:48:35;27.67;;;21.58;;
63203;SDS011;49297;43.210;27.914;2024-01-15T02:51:01;29.30;;;23.33;;
63203;SDS011;49297;43.210;27.914;2024-01-15T02:53:27;25.88;;;21.73;;
63203;SDS011;49297;43.210;27.914;2024-01-15T02:55:53;29.65;;;22.27;;
63203;SDS011;49297;43.210;27.914;2024-01-15T02:58:19;26.08;;;21.98;;
63203;SDS011;49297;43.210;27.914;2024-01-15T03:00:44;27.08;;;21.50;;
63203;SDS011;49297;43.210;27.914;2024-01-15T03:03:11;26.00;;;20.90;;
63203;SDS011;49297;43.210;27.914;2024-01-15T03:05:37;30.48;;;22.23;;
63203;SDS011;49297;43.210;27.914;2024-01-15T03:08:03;33.92;;;23.23;;
63203;SDS011;49297;43.210;27.914;2024-01-15T03:10:29;32.10;;;20.08;;
63203;SDS011;49297;43.210;27.914;2024-01-15T03:12:55;25.57;;;19.70;;
63203;SDS011;49297;43.210;27.914;2024-01-15T03:15:20;24.30;;;20.40;;
63203;SDS011;49297;43.210;27.914;2024-01-15T03:17:46;21.53;;;18.97;;
63203;SDS011;49297;43.210;27.914;2024-01-15T03:20:12;22.37;;;19.33;;
63203;SDS011;49297;43.210;27.914;2024-01-15T03:22:37;25.40;;;19.08;;
63203;SDS011;49297;43.210;27.914;2024-01-15T03:25:03;25.70;;;19.35;;
63203;SDS011;49297;43.210;27.914;2024-01-15T03:27:29;22.02;;;18.10;;
63203;SDS011;49297;43.210;27.914;2024-01-15T03:29:55;23.30;;;19.80;;
63203;SDS011;49297;43.210;27.914;2024-01-15T03:32:21;23.05;;;20.05;;
63203;SDS011;49297;43.210;27.914;2024-01-15T03:34:47;24.75;;;19.67;;
63203;SDS011;49297;43.210;27.914;2024-01-15T03:37:17;23.42;;;19.88;;
63203;SDS011;49297;43.210;27.914;2024-01-15T03:39:44;25.58;;;20.58;;
63203;SDS011;49297;43.210;27.914;2024-01-15T03:42:09;26.95;;;20.80;;
63203;SDS011;49297;43.210;27.914;2024-01-15T03:44:35;23.27;;;20.10;;
63203;SDS011;49297;43.210;27.914;2024-01-15T03:47:01;23.10;;;20.60;;
63203;SDS011;49297;43.210;27.914;2024-01-15T03:49:27;25.65;;;20.42;;
63203;SDS011;49297;43.210;27.914;2024-01-15T03:51:52;24.58;;;21.98;;
63203;SDS011;49297;43.210;27.914;2024-01-15T03:54:18;28.77;;;21.85;;
63203;SDS011;49297;43.210;27.914;2024-01-15T03:56:44;25.35;;;20.70;;
63203;SDS011;49297;43.210;27.914;2024-01-15T03:59:09;28.02;;;22.65;;
63203;SDS011;49297;43.210;27.914;2024-01-15T04:01:36;22.55;;;20.25;;
63203;SDS011;49297;43.210;27.914;2024-01-15T04:04:02;24.43;;;21.13;;
63203;SDS011;49297;43.210;27.914;2024-01-15T04:06:28;27.88;;;22.70;;
63203;SDS011;49297;43.210;27.914;2024-01-15T04:08:53;24.65;;;20.17;;
63203;SDS011;49297;43.210;27.914;2024-01-15T04:11:19;27.38;;;22.10;;
63203;SDS011;49297;43.210;27.914;2024-01-15T04:13:45;27.65;;;21.55;;
63203;SDS011;49297;43.210;27.914;2024-01-15T04:16:10;23.73;;;20.63;;
63203;SDS011;49297;43.210;27.914;2024-01-15T04:18:36;29.53;;;20.83;;
63203;SDS011;49297;43.210;27.914;2024-01-15T04:21:03;26.97;;;21.50;;
63203;SDS011;49297;43.210;27.914;2024-01-15T04:23:30;22.45;;;19.00;;
63203;SDS011;49297;43.210;27.914;2024-01-15T04:25:56;33.05;;;24.67;;
63203;SDS011;49297;43.210;27.914;2024-01-15T04:28:22;25.27;;;22.45;;
63203;SDS011;49297;43.210;27.914;2024-01-15T04:30:50;30.48;;;22.92;;
63203;SDS011;49297;43.210;27.914;2024-01-15T04:33:16;28.75;;;23.73;;
63203;SDS011;49297;43.210;27.914;2024-01-15T04:35:41;30.80;;;21.47;;
63203;SDS011;49297;43.210;27.914;2024-01-15T04:38:07;33.77;;;26.77;;
63203;SDS011;49297;43.210;27.914;2024-01-15T04:40:33;31.53;;;25.97;;
63203;SDS011;49297;43.210;27.914;2024-01-15T04:42:58;30.03;;;24.03;;
63203;SDS011;49297;43.210;27.914;2024-01-15T04:45:25;29.75;;;23.55;;
63203;SDS011;49297;43.210;27.914;2024-01-15T04:47:54;31.98;;;25.83;;
63203;SDS011;49297;43.210;27.914;2024-01-15T04:50:23;24.00;;;21.20;;
63203;SDS011;49297;43.210;27.914;2024-01-15T04:52:49;31.38;;;25.13;;
63203;SDS011;49297;43.210;27.914;2024-01-15T04:55:15;25.67;;;22.88;;
63203;SDS011;49297;43.210;27.914;2024-01-15T04:57:41;24.70;;;21.98;;
63203;SDS011;49297;43.210;27.914;2024-01-15T05:00:07;31.80;;;23.03;;
63203;SDS011;49297;43.210;27.914;2024-01-15T05:02:33;36.85;;;25.20;;
63203;SDS011;49297;43.210;27.914;2024-01-15T05:04:59;37.42;;;28.63;;
63203;SDS011;49297;43.210;27.914;2024-01-15T05:07:25;39.63;;;32.27;;
63203;SDS011;49297;43.210;27.914;2024-01-15T05:09:50;53.90;;;37.03;;
63203;SDS011;49297;43.210;27.914;2024-01-15T05:12:16;45.73;;;35.67;;
63203;SDS011;49297;43.210;27.914;2024-01-15T05:14:42;37.53;;;32.93;;
63203;SDS011;49297;43.210;27.914;2024-01-15T05:17:07;41.10;;;33.20;;
63203;SDS011;49297;43.210;27.914;2024-01-15T05:19:33;42.47;;;33.10;;
63203;SDS011;49297;43.210;27.914;2024-01-15T05:21:59;32.17;;;27.20;;
63203;SDS011;49297;43.210;27.914;2024-01-15T05:24:24;29.67;;;26.45;;
63203;SDS011;49297;43.210;27.914;2024-01-15T05:26:51;31.90;;;25.70;;
63203;SDS011;49297;43.210;27.914;2024-01-15T05:29:17;42.90;;;26.70;;
63203;SDS011;49297;43.210;27.914;2024-01-15T05:31:43;36.42;;;30.95;;
63203;SDS011;49297;43.210;27.914;2024-01-15T05:34:09;34.60;;;27.05;;
63203;SDS011;49297;43.210;27.914;2024-01-15T05:36:37;33.37;;;25.90;;
63203;SDS011;49297;43.210;27.914;2024-01-15T05:39:03;32.13;;;25.80;;
63203;SDS011;49297;43.210;27.914;2024-01-15T05:41:29;34.72;;;31.05;;
63203;SDS011;49297;43.210;27.914;2024-01-15T05:43:55;37.53;;;30.10;;
63203;SDS011;49297;43.210;27.914;2024-01-15T05:46:20;35.70;;;26.58;;
63203;SDS011;49297;43.210;27.914;2024-01-15T05:48:46;30.75;;;25.55;;
63203;SDS011;49297;43.210;27.914;2024-01-15T05:51:12;38.72;;;26.58;;
63203;SDS011;49297;43.210;27.914;2024-01-15T05:53:37;31.73;;;23.15;;
63203;SDS011;49297;43.210;27.914;2024-01-15T05:56:05;26.52;;;23.58;;
63203;SDS011;49297;43.210;27.914;2024-01-15T05:58:31;26.93;;;21.23;;
63203;SDS011;49297;43.210;27.914;2024-01-15T06:00:57;27.08;;;21.63;;
63203;SDS011;49297;43.210;27.914;2024-01-15T06:03:22;25.50;;;19.92;;
63203;SDS011;49297;43.210;27.914;2024-01-15T06:05:48;28.23;;;20.23;;
63203;SDS011;49297;43.210;27.914;2024-01-15T06:08:14;26.17;;;19.27;;
63203;SDS011;49297;43.210;27.914;2024-01-15T06:10:39;29.97;;;18.27;;
63203;SDS011;49297;43.210;27.914;2024-01-15T06:13:05;27.20;;;20.00;;
63203;SDS011;49297;43.210;27.914;2024-01-15T06:15:34;22.23;;;19.98;;
63203;SDS011;49297;43.210;27.914;2024-01-15T06:17:59;25.60;;;21.27;;
63203;SDS011;49297;43.210;27.914;2024-01-15T06:20:25;26.40;;;22.10;;
63203;SDS011;49297;43.210;27.914;2024-01-15T06:22:51;31.13;;;22.33;;
63203;SDS011;49297;43.210;27.914;2024-01-15T06:25:16;25.10;;;20.70;;
63203;SDS011;49297;43.210;27.914;2024-01-15T06:27:42;32.40;;;23.02;;
63203;SDS011;49297;43.210;27.914;2024-01-15T06:30:09;29.40;;;24.63;;
63203;SDS011;49297;43.210;27.914;2024-01-15T06:32:35;30.58;;;24.00;;
63203;SDS011;49297;43.210;27.914;2024-01-15T06:35:00;30.77;;;22.63;;
63203;SDS011;49297;43.210;27.914;2024-01-15T06:37:26;33.43;;;24.77;;
63203;SDS011;49297;43.210;27.914;2024-01-15T06:39:52;34.87;;;23.80;;
63203;SDS011;49297;43.210;27.914;2024-01-15T06:42:18;31.40;;;25.38;;
63203;SDS011;49297;43.210;27.914;2024-01-15T06:44:44;31.80;;;24.67;;
63203;SDS011;49297;43.210;27.914;2024-01-15T06:47:10;31.23;;;26.40;;
63203;SDS011;49297;43.210;27.914;2024-01-15T06:49:36;28.98;;;24.92;;
63203;SDS011;49297;43.210;27.914;2024-01-15T06:52:02;62.57;;;29.30;;
63203;SDS011;49297;43.210;27.914;2024-01-15T06:54:27;40.60;;;28.47;;
63203;SDS011;49297;43.210;27.914;2024-01-15T06:56:53;37.05;;;28.80;;
63203;SDS011;49297;43.210;27.914;2024-01-15T06:59:19;39.28;;;27.42;;
63203;SDS011;49297;43.210;27.914;2024-01-15T07:01:45;35.03;;;27.88;;
63203;SDS011;49297;43.210;27.914;2024-01-15T07:04:10;31.63;;;26.48;;
63203;SDS011;49297;43.210;27.914;2024-01-15T07:06:36;40.72;;;31.33;;
63203;SDS011;49297;43.210;27.914;2024-01-15T07:09:02;37.28;;;31.58;;
63203;SDS011;49297;43.210;27.914;2024-01-15T07:11:37;50.63;;;36.20;;
63203;SDS011;49297;43.210;27.914;2024-01-15T07:14:03;43.13;;;38.57;;
63203;SDS011;49297;43.210;27.914;2024-01-15T07:16:30;43.83;;;34.57;;
63203;SDS011;49297;43.210;27.914;2024-01-15T07:18:56;50.38;;;40.42;;
63203;SDS011;49297;43.210;27.914;2024-01-15T07:21:21;54.55;;;43.58;;
63203;SDS011;49297;43.210;27.914;2024-01-15T07:23:47;51.00;;;43.50;;
63203;SDS011;49297;43.210;27.914;2024-01-15T07:26:13;44.40;;;38.45;;
63203;SDS011;49297;43.210;27.914;2024-01-15T07:28:39;40.10;;;34.55;;
63203;SDS011;49297;43.210;27.914;2024-01-15T07:31:05;46.38;;;34.33;;
63203;SDS011;49297;43.210;27.914;2024-01-15T07:33:32;40.20;;;34.23;;
63203;SDS011;49297;43.210;27.914;2024-01-15T07:36:00;48.35;;;36.42;;
63203;SDS011;49297;43.210;27.914;2024-01-15T07:38:28;36.70;;;32.65;;
63203;SDS011;49297;43.210;27.914;2024-01-15T07:40:58;37.00;;;30.55;;
63203;SDS011;49297;43.210;27.914;2024-01-15T07:43:23;36.15;;;28.92;;
63203;SDS011;49297;43.210;27.914;2024-01-15T07:45:49;28.98;;;25.75;;
63203;SDS011;49297;43.210;27.914;2024-01-15T07:48:21;50.00;;;27.15;;
63203;SDS011;49297;43.210;27.914;2024-01-15T07:50:50;27.58;;;24.65;;
63203;SDS011;49297;43.210;27.914;2024-01-15T07:53:17;28.55;;;25.23;;
63203;SDS011;49297;43.210;27.914;2024-01-15T07:55:43;35.70;;;27.15;;
63203;SDS011;49297;43.210;27.914;2024-01-15T07:58:11;28.55;;;21.83;;
63203;SDS011;49297;43.210;27.914;2024-01-15T08:00:37;23.85;;;19.50;;
63203;SDS011;49297;43.210;27.914;2024-01-15T08:03:03;31.35;;;22.90;;
63203;SDS011;49297;43.210;27.914;2024-01-15T08:05:29;31.08;;;22.98;;
63203;SDS011;49297;43.210;27.914;2024-01-15T08:07:54;27.70;;;23.77;;
63203;SDS011;49297;43.210;27.914;2024-01-15T08:10:21;40.65;;;25.63;;
63203;SDS011;49297;43.210;27.914;2024-01-15T08:12:46;31.45;;;25.70;;
63203;SDS011;49297;43.210;27.914;2024-01-15T08:15:18;37.10;;;27.35;;
63203;SDS011;49297;43.210;27.914;2024-01-15T08:17:44;35.65;;;27.50;;
63203;SDS011;49297;43.210;27.914;2024-01-15T08:20:09;39.97;;;29.58;;
63203;SDS011;49297;43.210;27.914;2024-01-15T08:22:44;33.83;;;28.38;;
63203;SDS011;49297;43.210;27.914;2024-01-15T08:25:09;31.50;;;27.13;;
63203;SDS011;49297;43.210;27.914;2024-01-15T08:27:36;34.53;;;29.70;;
63203;SDS011;49297;43.210;27.914;2024-01-15T08:30:01;41.30;;;31.77;;
63203;SDS011;49297;43.210;27.914;2024-01-15T08:32:31;37.22;;;30.50;;
63203;SDS011;49297;43.210;27.914;2024-01-15T08:34:58;42.60;;;34.63;;
63203;SDS011;49297;43.210;27.914;2024-01-15T08:37:24;47.25;;;34.67;;
63203;SDS011;49297;43.210;27.914;2024-01-15T08:39:50;44.78;;;38.95;;
63203;SDS011;49297;43.210;27.914;2024-01-15T08:42:16;50.97;;;34.95;;
63203;SDS011;49297;43.210;27.914;2024-01-15T08:44:42;43.55;;;31.42;;
63203;SDS011;49297;43.210;27.914;2024-01-15T08:47:09;44.53;;;31.37;;
63203;SDS011;49297;43.210;27.914;2024-01-15T08:49:35;35.40;;;29.77;;
63203;SDS011;49297;43.210;27.914;2024-01-15T08:52:02;40.47;;;30.83;;
63203;SDS011;49297;43.210;27.914;2024-01-15T08:54:27;33.10;;;27.25;;
63203;SDS011;49297;43.210;27.914;2024-01-15T08:56:53;36.85;;;26.02;;
63203;SDS011;49297;43.210;27.914;2024-01-15T08:59:20;33.65;;;26.10;;
63203;SDS011;49297;43.210;27.914;2024-01-15T09:01:51;29.83;;;24.75;;
63203;SDS011;49297;43.210;27.914;2024-01-15T09:04:18;41.70;;;27.88;;
63203;SDS011;49297;43.210;27.914;2024-01-15T09:06:46;38.22;;;28.60;;
63203;SDS011;49297;43.210;27.914;2024-01-15T09:09:12;33.43;;;27.60;;
63203;SDS011;49297;43.210;27.914;2024-01-15T09:11:41;32.45;;;28.70;;
63203;SDS011;49297;43.210;27.914;2024-01-15T09:14:08;32.57;;;27.87;;
63203;SDS011;49297;43.210;27.914;2024-01-15T09:16:34;30.15;;;24.80;;
63203;SDS011;49297;43.210;27.914;2024-01-15T09:19:02;32.17;;;22.88;;
63203;SDS011;49297;43.210;27.914;2024-01-15T09:21:29;29.27;;;22.27;;
63203;SDS011;49297;43.210;27.914;2024-01-15T09:23:56;24.53;;;19.83;;
63203;SDS011;49297;43.210;27.914;2024-01-15T09:26:23;22.63;;;16.83;;
63203;SDS011;49297;43.210;27.914;2024-01-15T09:28:49;16.40;;;13.20;;
63203;SDS011;49297;43.210;27.914;2024-01-15T09:31:15;21.08;;;17.25;;
63203;SDS011;49297;43.210;27.914;2024-01-15T09:33:43;23.10;;;17.17;;
63203;SDS011;49297;43.210;27.914;2024-01-15T09:36:11;22.27;;;16.33;;
63203;SDS011;49297;43.210;27.914;2024-01-15T09:38:37;21.85;;;16.63;;
63203;SDS011;49297;43.210;27.914;2024-01-15T09:41:06;23.45;;;17.30;;
63203;SDS011;49297;43.210;27.914;2024-01-15T09:43:32;143.82;;;28.38;;
63203;SDS011;49297;43.210;27.914;2024-01-15T09:46:01;32.25;;;19.10;;
63203;SDS011;49297;43.210;27.914;2024-01-15T09:48:35;29.83;;;17.52;;
63203;SDS011;49297;43.210;27.914;2024-01-15T09:54:17;21.60;;;16.42;;
63203;SDS011;49297;43.210;27.914;2024-01-15T09:56:48;21.57;;;17.53;;
63203;SDS011;49297;43.210;27.914;2024-01-15T09:59:17;18.63;;;16.40;;
63203;SDS011;49297;43.210;27.914;2024-01-15T10:01:50;23.80;;;15.57;;
63203;SDS011;49297;43.210;27.914;2024-01-15T10:04:18;16.00;;;11.47;;
63203;SDS011;49297;43.210;27.914;2024-01-15T10:06:46;15.80;;;11.83;;
63203;SDS011;49297;43.210;27.914;2024-01-15T10:09:16;15.80;;;11.48;;
63203;SDS011;49297;43.210;27.914;2024-01-15T10:11:44;17.35;;;12.93;;
63203;SDS011;49297;43.210;27.914;2024-01-15T10:14:11;12.93;;;11.45;;
63203;SDS011;49297;43.210;27.914;2024-01-15T10:16:40;14.13;;;11.32;;
63203;SDS011;49297;43.210;27.914;2024-01-15T10:19:09;19.48;;;11.48;;
63203;SDS011;49297;43.210;27.914;2024-01-15T10:21:37;18.13;;;11.20;;
63203;SDS011;49297;43.210;27.914;2024-01-15T10:24:03;16.53;;;10.00;;
63203;SDS011;49297;43.210;27.914;2024-01-15T10:26:30;11.57;;;10.00;;
63203;SDS011;49297;43.210;27.914;2024-01-15T10:29:06;12.82;;;8.88;;
63203;SDS011;49297;43.210;27.914;2024-01-15T10:31:36;11.82;;;9.50;;
63203;SDS011;49297;43.210;27.914;2024-01-15T10:34:10;17.73;;;10.43;;
63203;SDS011;49297;43.210;27.914;2024-01-15T10:36:42;18.58;;;11.60;;
63203;SDS011;49297;43.210;27.914;2024-01-15T10:39:13;12.52;;;10.27;;
63203;SDS011;49297;43.210;27.914;2024-01-15T10:41:39;10.90;;;9.80;;
63203;SDS011;49297;43.210;27.914;2024-01-15T10:44:18;11.52;;;9.43;;
63203;SDS011;49297;43.210;27.914;2024-01-15T10:46:45;10.77;;;8.73;;
63203;SDS011;49297;43.210;27.914;2024-01-15T10:49:13;10.10;;;8.63;;
63203;SDS011;49297;43.210;27.914;2024-01-15T10:51:38;10.05;;;8.23;;
63203;SDS011;49297;43.210;27.914;2024-01-15T10:54:07;7.80;;;6.72;;
63203;SDS011;49297;43.210;27.914;2024-01-15T10:56:38;10.38;;;8.57;;
63203;SDS011;49297;43.210;27.914;2024-01-15T10:59:05;8.47;;;6.60;;
63203;SDS011;49297;43.210;27.914;2024-01-15T11:01:34;8.98;;;7.78;;
63203;SDS011;49297;43.210;27.914;2024-01-15T11:04:00;8.43;;;7.25;;
63203;SDS011;49297;43.210;27.914;2024-01-15T11:06:26;9.23;;;7.60;;
63203;SDS011;49297;43.210;27.914;2024-01-15T11:08:54;8.50;;;7.27;;
63203;SDS011;49297;43.210;27.914;2024-01-15T11:11:21;11.25;;;7.25;;
63203;SDS011;49297;43.210;27.914;2024-01-15T11:13:49;8.23;;;7.35;;
63203;SDS011;49297;43.210;27.914;2024-01-15T11:16:17;8.98;;;7.72;;
63203;SDS011;49297;43.210;27.914;2024-01-15T11:19:01;8.32;;;7.38;;
63203;SDS011;49297;43.210;27.914;2024-01-15T11:21:31;8.95;;;7.10;;
63203;SDS011;49297;43.210;27.914;2024-01-15T11:23:57;8.23;;;7.33;;
63203;SDS011;49297;43.210;27.914;2024-01-15T11:37:18;11.55;;;9.50;;
63203;SDS011;49297;43.210;27.914;2024-01-15T11:39:44;11.80;;;8.57;;
63203;SDS011;49297;43.210;27.914;2024-01-15T11:42:12;11.75;;;8.43;;
63203;SDS011;49297;43.210;27.914;2024-01-15T11:44:39;12.15;;;8.98;;
63203;SDS011;49297;43.210;27.914;2024-01-15T11:47:08;14.02;;;9.25;;
63203;SDS011;49297;43.210;27.914;2024-01-15T11:52:32;13.30;;;7.72;;
63203;SDS011;49297;43.210;27.914;2024-01-15T11:57:37;8.68;;;6.32;;
63203;SDS011;49297;43.210;27.914;2024-01-15T12:00:10;13.43;;;6.78;;
63203;SDS011;49297;43.210;27.914;2024-01-15T12:02:47;11.57;;;6.13;;
63203;SDS011;49297;43.210;27.914;2024-01-15T12:05:15;10.82;;;6.25;;
63203;SDS011;49297;43.210;27.914;2024-01-15T12:07:47;8.17;;;6.40;;
63203;SDS011;49297;43.210;27.914;2024-01-15T12:10:18;9.60;;;7.10;;
63203;SDS011;49297;43.210;27.914;2024-01-15T12:15:20;7.87;;;7.07;;
63203;SDS011;49297;43.210;27.914;2024-01-15T12:17:46;9.18;;;7.40;;
63203;SDS011;49297;43.210;27.914;2024-01-15T12:20:15;9.40;;;7.32;;
63203;SDS011;49297;43.210;27.914;2024-01-15T12:22:42;8.70;;;7.50;;
63203;SDS011;49297;43.210;27.914;2024-01-15T12:25:09;15.68;;;9.55;;
63203;SDS011;49297;43.210;27.914;2024-01-15T12:27:35;13.32;;;8.65;;
63203;SDS011;49297;43.210;27.914;2024-01-15T12:32:30;8.97;;;7.97;;
63203;SDS011;49297;43.210;27.914;2024-01-15T12:34:56;7.70;;;6.90;;
63203;SDS011;49297;43.210;27.914;2024-01-15T12:37:24;10.77;;;8.27;;
63203;SDS011;49297;43.210;27.914;2024-01-15T12:39:51;11.88;;;7.93;;
63203;SDS011;49297;43.210;27.914;2024-01-15T12:42:20;9.95;;;7.43;;
63203;SDS011;49297;43.210;27.914;2024-01-15T12:44:47;9.63;;;7.70;;
63203;SDS011;49297;43.210;27.914;2024-01-15T12:47:15;13.60;;;8.30;;
63203;SDS011;49297;43.210;27.914;2024-01-15T12:49:46;10.35;;;7.70;;
63203;SDS011;49297;43.210;27.914;2024-01-15T12:52:21;9.50;;;7.70;;
63203;SDS011;49297;43.210;27.914;2024-01-15T12:54:51;10.70;;;8.02;;
63203;SDS011;49297;43.210;27.914;2024-01-15T12:57:17;11.98;;;8.25;;
63203;SDS011;49297;43.210;27.914;2024-01-15T12:59:43;8.55;;;7.25;;
63203;SDS011;49297;43.210;27.914;2024-01-15T13:02:12;11.48;;;7.93;;
63203;SDS011;49297;43.210;27.914;2024-01-15T13:04:39;8.70;;;7.40;;
63203;SDS011;49297;43.210;27.914;2024-01-15T13:07:13;7.87;;;6.27;;
63203;SDS011;49297;43.210;27.914;2024-01-15T13:09:38;7.33;;;6.63;;
63203;SDS011;49297;43.210;27.914;2024-01-15T13:12:05;8.90;;;7.93;;
63203;SDS011;49297;43.210;27.914;2024-01-15T13:14:32;9.30;;;8.15;;
63203;SDS011;49297;43.210;27.914;2024-01-15T13:17:01;9.18;;;7.90;;
63203;SDS011;49297;43.210;27.914;2024-01-15T13:19:29;11.02;;;8.57;;
63203;SDS011;49297;43.210;27.914;2024-01-15T13:21:55;13.70;;;9.27;;
63203;SDS011;49297;43.210;27.914;2024-01-15T13:24:23;10.15;;;8.20;;
63203;SDS011;49297;43.210;27.914;2024-01-15T13:26:51;10.25;;;7.65;;
63203;SDS011;49297;43.210;27.914;2024-01-15T13:29:17;9.17;;;7.80;;
63203;SDS011;49297;43.210;27.914;2024-01-15T13:31:45;12.38;;;8.55;;
63203;SDS011;49297;43.210;27.914;2024-01-15T13:34:12;8.85;;;7.05;;
63203;SDS011;49297;43.210;27.914;2024-01-15T13:36:39;8.95;;;7.45;;
63203;SDS011;49297;43.210;27.914;2024-01-15T13:39:05;10.82;;;7.30;;
63203;SDS011;49297;43.210;27.914;2024-01-15T13:41:34;9.80;;;8.80;;
63203;SDS011;49297;43.210;27.914;2024-01-15T13:44:01;11.30;;;9.07;;
63203;SDS011;49297;43.210;27.914;2024-01-15T13:46:27;10.83;;;9.07;;
63203;SDS011;49297;43.210;27.914;2024-01-15T13:48:53;13.43;;;9.03;;
63203;SDS011;49297;43.210;27.914;2024-01-15T13:51:21;15.40;;;10.27;;
63203;SDS011;49297;43.210;27.914;2024-01-15T13:53:48;13.82;;;9.85;;
63203;SDS011;49297;43.210;27.914;2024-01-15T13:56:15;13.38;;;10.55;;
63203;SDS011;49297;43.210;27.914;2024-01-15T13:58:41;13.35;;;10.93;;
63203;SDS011;49297;43.210;27.914;2024-01-15T14:01:08;16.33;;;11.82;;
63203;SDS011;49297;43.210;27.914;2024-01-15T14:03:34;14.75;;;13.20;;
63203;SDS011;49297;43.210;27.914;2024-01-15T14:06:00;15.93;;;14.32;;
63203;SDS011;49297;43.210;27.914;2024-01-15T14:08:28;15.90;;;12.82;;
63203;SDS011;49297;43.210;27.914;2024-01-15T14:10:54;18.70;;;12.93;;
63203;SDS011;49297;43.210;27.914;2024-01-15T14:13:22;13.73;;;12.25;;
63203;SDS011;49297;43.210;27.914;2024-01-15T14:15:48;14.47;;;12.93;;
63203;SDS011;49297;43.210;27.914;2024-01-15T14:18:22;20.80;;;17.02;;
63203;SDS011;49297;43.210;27.914;2024-01-15T14:20:48;16.03;;;12.83;;
63203;SDS011;49297;43.210;27.914;2024-01-15T14:23:14;17.75;;;13.95;;
63203;SDS011;49297;43.210;27.914;2024-01-15T14:25:40;23.85;;;19.63;;
63203;SDS011;49297;43.210;27.914;2024-01-15T14:28:06;24.35;;;20.00;;
63203;SDS011;49297;43.210;27.914;2024-01-15T14:30:32;22.35;;;19.92;;
63203;SDS011;49297;43.210;27.914;2024-01-15T14:32:58;20.03;;;17.47;;
63203;SDS011;49297;43.210;27.914;2024-01-15T14:35:23;21.17;;;16.37;;